Terminal Aerodrome Forecast
Issued by NWS

Home | Current Version | Previous Version | Text Only | Print | Product List | Glossary Off
Versions: 1 2 3 4 5 6 7 8 9 10 11 12 13 14 15 16 17 18 19 20 21 22 23 24

986
FTUS43 KBIS 210545
TAFMOT
TAF
KMOT 210545Z 2106/2206 22007KT P6SM VCSH BKN050 OVC100
     FM210900 19006KT P6SM SCT140
     FM211200 22008KT P6SM FEW250
     FM211500 25009KT P6SM SCT250
     FM212200 24009KT P6SM OVC080
     FM220200 27007KT P6SM OVC040
     FM220500 31006KT P6SM OVC003=

USA.gov is the U.S. government's official web portal to all federal, state and local government web resources and services.